sensor_id;sensor_type;location;lat;lon;timestamp;pressure;altitude;pressure_sealevel;temperature;humidity
58295;BME280;45705;55.592;37.460;2023-05-11T00:00:18;99733.19;;;11.29;50.60
58295;BME280;45705;55.592;37.460;2023-05-11T00:02:44;99728.34;;;11.26;50.86
58295;BME280;45705;55.592;37.460;2023-05-11T00:05:10;99733.22;;;11.43;50.38
58295;BME280;45705;55.592;37.460;2023-05-11T00:07:36;99734.72;;;11.35;52.43
58295;BME280;45705;55.592;37.460;2023-05-11T00:10:02;99736.44;;;11.31;51.51
58295;BME280;45705;55.592;37.460;2023-05-11T00:12:31;99739.66;;;11.33;53.25
58295;BME280;45705;55.592;37.460;2023-05-11T00:14:57;99729.47;;;11.25;57.05
58295;BME280;45705;55.592;37.460;2023-05-11T00:17:22;99733.88;;;11.21;59.31
58295;BME280;45705;55.592;37.460;2023-05-11T00:19:48;99728.91;;;11.09;57.70
58295;BME280;45705;55.592;37.460;2023-05-11T00:22:14;99737.88;;;11.10;58.48
58295;BME280;45705;55.592;37.460;2023-05-11T00:24:40;99728.69;;;11.06;55.63
58295;BME280;45705;55.592;37.460;2023-05-11T00:27:06;99728.69;;;11.06;56.15
58295;BME280;45705;55.592;37.460;2023-05-11T00:29:32;99729.53;;;11.20;56.93
58295;BME280;45705;55.592;37.460;2023-05-11T00:31:58;99734.97;;;11.20;57.15
58295;BME280;45705;55.592;37.460;2023-05-11T00:34:24;99734.13;;;11.06;60.84
58295;BME280;45705;55.592;37.460;2023-05-11T00:36:52;99735.91;;;10.96;60.69
58295;BME280;45705;55.592;37.460;2023-05-11T00:39:18;99730.47;;;10.96;61.41
58295;BME280;45705;55.592;37.460;2023-05-11T00:41:44;99733.19;;;10.96;58.67
58295;BME280;45705;55.592;37.460;2023-05-11T00:44:10;99737.53;;;10.97;60.09
58295;BME280;45705;55.592;37.460;2023-05-11T00:46:36;99724.50;;;10.94;60.69
58295;BME280;45705;55.592;37.460;2023-05-11T00:49:02;99733.88;;;10.88;61.48
58295;BME280;45705;55.592;37.460;2023-05-11T00:51:30;99730.19;;;10.79;62.79
58295;BME280;45705;55.592;37.460;2023-05-11T00:53:58;99732.22;;;10.87;61.85
58295;BME280;45705;55.592;37.460;2023-05-11T00:56:25;99730.13;;;10.84;62.63
58295;BME280;45705;55.592;37.460;2023-05-11T00:58:51;99737.03;;;10.76;61.93
58295;BME280;45705;55.592;37.460;2023-05-11T01:01:17;99714.84;;;10.69;61.48
58295;BME280;45705;55.592;37.460;2023-05-11T01:03:43;99743.28;;;10.77;61.10
58295;BME280;45705;55.592;37.460;2023-05-11T01:09:47;99736.22;;;10.76;61.18
58295;BME280;45705;55.592;37.460;2023-05-11T01:12:03;99735.56;;;10.46;62.01
58295;BME280;45705;55.592;37.460;2023-05-11T01:14:40;99745.75;;;10.54;61.05
58295;BME280;45705;55.592;37.460;2023-05-11T01:17:17;99741.81;;;10.66;58.09
58295;BME280;45705;55.592;37.460;2023-05-11T01:19:55;99736.22;;;10.76;57.08
58295;BME280;45705;55.592;37.460;2023-05-11T01:28:19;99735.09;;;10.96;55.13
58295;BME280;45705;55.592;37.460;2023-05-11T01:30:53;99734.44;;;10.85;57.94
58295;BME280;45705;55.592;37.460;2023-05-11T01:33:26;99734.16;;;10.87;57.11
58295;BME280;45705;55.592;37.460;2023-05-11T01:36:00;99736.06;;;10.86;54.46
58295;BME280;45705;55.592;37.460;2023-05-11T01:38:34;99731.72;;;10.85;56.64
58295;BME280;45705;55.592;37.460;2023-05-11T01:41:08;99747.09;;;10.76;58.33
58295;BME280;45705;55.592;37.460;2023-05-11T01:43:35;99743.72;;;10.65;60.90
58295;BME280;45705;55.592;37.460;2023-05-11T01:46:02;99749.91;;;10.71;59.11
58295;BME280;45705;55.592;37.460;2023-05-11T01:48:33;99749.16;;;10.84;57.59
58295;BME280;45705;55.592;37.460;2023-05-11T01:51:01;99740.91;;;10.89;56.57
58295;BME280;45705;55.592;37.460;2023-05-11T01:53:31;99737.69;;;10.87;56.20
58295;BME280;45705;55.592;37.460;2023-05-11T01:55:58;99742.75;;;10.94;57.11
58295;BME280;45705;55.592;37.460;2023-05-11T01:58:25;99747.31;;;10.98;56.23
58295;BME280;45705;55.592;37.460;2023-05-11T02:00:51;99727.25;;;10.94;55.71
58295;BME280;45705;55.592;37.460;2023-05-11T02:03:20;99734.50;;;10.99;56.17
58295;BME280;45705;55.592;37.460;2023-05-11T02:05:48;99737.38;;;11.08;55.38
58295;BME280;45705;55.592;37.460;2023-05-11T02:08:15;99732.94;;;11.12;54.04
58295;BME280;45705;55.592;37.460;2023-05-11T02:10:43;99738.97;;;11.09;56.10
58295;BME280;45705;55.592;37.460;2023-05-11T02:13:11;99738.97;;;11.09;56.70
58295;BME280;45705;55.592;37.460;2023-05-11T02:15:41;99739.41;;;11.16;56.05
58295;BME280;45705;55.592;37.460;2023-05-11T02:18:11;99734.97;;;11.20;53.72
58295;BME280;45705;55.592;37.460;2023-05-11T02:20:40;99738.81;;;11.19;56.37
58295;BME280;45705;55.592;37.460;2023-05-11T02:23:06;99731.44;;;11.19;53.92
58295;BME280;45705;55.592;37.460;2023-05-11T02:25:33;99734.59;;;11.27;53.90
58295;BME280;45705;55.592;37.460;2023-05-11T02:27:59;99733.78;;;11.26;54.64
58295;BME280;45705;55.592;37.460;2023-05-11T02:30:27;99732.00;;;11.35;54.95
58295;BME280;45705;55.592;37.460;2023-05-11T02:32:57;99729.78;;;11.37;54.72
58295;BME280;45705;55.592;37.460;2023-05-11T02:35:28;99737.88;;;11.42;54.98
58295;BME280;45705;55.592;37.460;2023-05-11T02:37:58;99732.41;;;11.42;54.40
58295;BME280;45705;55.592;37.460;2023-05-11T02:40:30;99736.16;;;11.47;53.93
58295;BME280;45705;55.592;37.460;2023-05-11T02:43:01;99729.09;;;11.46;55.00
58295;BME280;45705;55.592;37.460;2023-05-11T02:45:31;99733.84;;;11.54;54.50
58295;BME280;45705;55.592;37.460;2023-05-11T02:48:01;99737.09;;;11.56;53.38
58295;BME280;45705;55.592;37.460;2023-05-11T02:50:30;99738.09;;;11.60;53.65
58295;BME280;45705;55.592;37.460;2023-05-11T02:53:03;99744.75;;;11.54;53.81
58295;BME280;45705;55.592;37.460;2023-05-11T02:55:31;99740.22;;;11.63;53.81
58295;BME280;45705;55.592;37.460;2023-05-11T02:57:57;99747.78;;;11.66;53.90
58295;BME280;45705;55.592;37.460;2023-05-11T03:00:23;99726.00;;;11.66;53.90
58295;BME280;45705;55.592;37.460;2023-05-11T03:02:51;99741.34;;;11.76;54.24
58295;BME280;45705;55.592;37.460;2023-05-11T03:05:20;99742.75;;;11.73;54.09
58295;BME280;45705;55.592;37.460;2023-05-11T03:07:46;99746.00;;;11.75;53.04
58295;BME280;45705;55.592;37.460;2023-05-11T03:10:13;99744.78;;;11.81;53.08
58295;BME280;45705;55.592;37.460;2023-05-11T03:12:42;99746.41;;;11.82;53.31
58295;BME280;45705;55.592;37.460;2023-05-11T03:15:09;99752.69;;;11.97;52.71
58295;BME280;45705;55.592;37.460;2023-05-11T03:17:39;99749.63;;;11.85;53.82
58295;BME280;45705;55.592;37.460;2023-05-11T03:20:07;99758.81;;;11.89;54.11
58295;BME280;45705;55.592;37.460;2023-05-11T03:22:37;99755.59;;;11.87;53.87
58295;BME280;45705;55.592;37.460;2023-05-11T03:25:04;99744.19;;;11.85;54.35
58295;BME280;45705;55.592;37.460;2023-05-11T03:27:40;99754.41;;;11.93;54.39
58295;BME280;45705;55.592;37.460;2023-05-11T03:30:08;99750.75;;;11.97;54.44
58295;BME280;45705;55.592;37.460;2023-05-11T03:32:40;99750.06;;;12.06;54.42
58295;BME280;45705;55.592;37.460;2023-05-11T03:35:07;99755.03;;;12.17;54.43
58295;BME280;45705;55.592;37.460;2023-05-11T03:37:35;99759.75;;;12.26;53.83
58295;BME280;45705;55.592;37.460;2023-05-11T03:40:06;99754.31;;;12.26;53.30
58295;BME280;45705;55.592;37.460;2023-05-11T03:42:42;99761.97;;;12.37;53.54
58295;BME280;45705;55.592;37.460;2023-05-11T03:45:09;99753.47;;;12.39;53.56
58295;BME280;45705;55.592;37.460;2023-05-11T03:47:39;99762.44;;;12.53;53.45
58295;BME280;45705;55.592;37.460;2023-05-11T03:50:07;99759.47;;;12.64;53.10
58295;BME280;45705;55.592;37.460;2023-05-11T03:52:34;99762.34;;;12.58;51.23
58295;BME280;45705;55.592;37.460;2023-05-11T03:55:01;99767.94;;;12.76;51.28
58295;BME280;45705;55.592;37.460;2023-05-11T03:57:29;99763.59;;;12.75;51.33
58295;BME280;45705;55.592;37.460;2023-05-11T03:59:55;99776.38;;;12.88;51.11
58295;BME280;45705;55.592;37.460;2023-05-11T04:02:21;99770.13;;;13.10;51.36
58295;BME280;45705;55.592;37.460;2023-05-11T04:04:49;99773.31;;;13.04;52.07
58295;BME280;45705;55.592;37.460;2023-05-11T04:07:18;99778.41;;;13.19;51.20
58295;BME280;45705;55.592;37.460;2023-05-11T04:09:43;99760.78;;;13.25;51.70
58295;BME280;45705;55.592;37.460;2023-05-11T04:12:09;99781.16;;;13.42;50.78
58295;BME280;45705;55.592;37.460;2023-05-11T04:14:35;99769.88;;;13.34;50.79
58295;BME280;45705;55.592;37.460;2023-05-11T04:17:01;99777.19;;;13.48;50.71
58295;BME280;45705;55.592;37.460;2023-05-11T04:19:27;99776.31;;;13.38;49.99
58295;BME280;45705;55.592;37.460;2023-05-11T04:21:54;99792.22;;;13.36;50.43
58295;BME280;45705;55.592;37.460;2023-05-11T04:24:20;99779.03;;;13.61;51.85
58295;BME280;45705;55.592;37.460;2023-05-11T04:26:45;99780.50;;;13.67;49.73
58295;BME280;45705;55.592;37.460;2023-05-11T04:29:11;99788.81;;;13.93;49.25
58295;BME280;45705;55.592;37.460;2023-05-11T04:31:37;99776.09;;;13.89;49.27
58295;BME280;45705;55.592;37.460;2023-05-11T04:34:06;99777.88;;;13.93;48.19
58295;BME280;45705;55.592;37.460;2023-05-11T04:36:33;99780.03;;;14.05;47.82
58295;BME280;45705;55.592;37.460;2023-05-11T04:39:00;99782.63;;;14.10;45.84
58295;BME280;45705;55.592;37.460;2023-05-11T04:41:26;99780.69;;;14.11;46.94
58295;BME280;45705;55.592;37.460;2023-05-11T04:43:55;99769.88;;;14.54;46.61
58295;BME280;45705;55.592;37.460;2023-05-11T04:46:22;99772.50;;;14.77;45.51
58295;BME280;45705;55.592;37.460;2023-05-11T04:48:48;99774.59;;;14.71;45.65
58295;BME280;45705;55.592;37.460;2023-05-11T04:51:14;99774.44;;;14.85;42.12
58295;BME280;45705;55.592;37.460;2023-05-11T04:53:43;99778.63;;;14.74;41.55
58295;BME280;45705;55.592;37.460;2023-05-11T04:56:09;99785.06;;;15.22;41.45
58295;BME280;45705;55.592;37.460;2023-05-11T04:58:35;99777.34;;;15.15;41.34
58295;BME280;45705;55.592;37.460;2023-05-11T05:01:01;99786.19;;;15.12;39.63
58295;BME280;45705;55.592;37.460;2023-05-11T05:03:28;99782.50;;;14.15;40.95
58295;BME280;45705;55.592;37.460;2023-05-11T05:05:54;99784.94;;;14.26;41.50
58295;BME280;45705;55.592;37.460;2023-05-11T05:08:20;99790.75;;;14.33;40.91
58295;BME280;45705;55.592;37.460;2023-05-11T05:10:47;99784.88;;;14.17;41.34
58295;BME280;45705;55.592;37.460;2023-05-11T05:13:13;99785.09;;;13.81;41.96
58295;BME280;45705;55.592;37.460;2023-05-11T05:15:41;99783.47;;;14.28;41.23
58295;BME280;45705;55.592;37.460;2023-05-11T05:18:07;99782.41;;;14.55;40.54
58295;BME280;45705;55.592;37.460;2023-05-11T05:20:34;99770.41;;;14.83;39.86
58295;BME280;45705;55.592;37.460;2023-05-11T05:23:00;99767.34;;;15.02;38.54
58295;BME280;45705;55.592;37.460;2023-05-11T05:25:26;99766.25;;;15.85;37.43
58295;BME280;45705;55.592;37.460;2023-05-11T05:27:53;99771.50;;;16.37;36.41
58295;BME280;45705;55.592;37.460;2023-05-11T05:30:19;99772.91;;;16.13;36.23
58295;BME280;45705;55.592;37.460;2023-05-11T05:32:46;99769.72;;;16.03;35.85
58295;BME280;45705;55.592;37.460;2023-05-11T05:35:12;99773.50;;;15.72;36.05
58295;BME280;45705;55.592;37.460;2023-05-11T05:37:39;99780.31;;;15.66;36.93
58295;BME280;45705;55.592;37.460;2023-05-11T05:40:05;99778.13;;;15.42;37.62
58295;BME280;45705;55.592;37.460;2023-05-11T05:42:36;99779.91;;;15.20;37.74
58295;BME280;45705;55.592;37.460;2023-05-11T05:45:04;99776.53;;;15.14;38.13
58295;BME280;45705;55.592;37.460;2023-05-11T05:47:32;99774.41;;;15.38;37.51
58295;BME280;45705;55.592;37.460;2023-05-11T05:49:58;99765.38;;;15.46;38.05
58295;BME280;45705;55.592;37.460;2023-05-11T05:52:24;99766.31;;;15.50;36.76
58295;BME280;45705;55.592;37.460;2023-05-11T05:54:51;99770.09;;;15.84;36.65
58295;BME280;45705;55.592;37.460;2023-05-11T05:57:16;99766.25;;;15.85;36.30
58295;BME280;45705;55.592;37.460;2023-05-11T05:59:43;99769.31;;;16.22;36.20
58295;BME280;45705;55.592;37.460;2023-05-11T06:02:09;99771.88;;;16.27;34.59
58295;BME280;45705;55.592;37.460;2023-05-11T06:04:37;99775.44;;;16.19;34.42
58295;BME280;45705;55.592;37.460;2023-05-11T06:07:03;99771.53;;;16.79;33.85
58295;BME280;45705;55.592;37.460;2023-05-11T06:09:29;99778.38;;;16.73;33.69
58295;BME280;45705;55.592;37.460;2023-05-11T06:11:55;99776.66;;;16.89;33.93
58295;BME280;45705;55.592;37.460;2023-05-11T06:14:23;99782.00;;;17.07;33.47
58295;BME280;45705;55.592;37.460;2023-05-11T06:16:50;99771.31;;;18.05;32.74
58295;BME280;45705;55.592;37.460;2023-05-11T06:19:16;99780.31;;;18.67;30.61
58295;BME280;45705;55.592;37.460;2023-05-11T06:21:42;99777.84;;;19.31;30.03
58295;BME280;45705;55.592;37.460;2023-05-11T06:24:11;99783.41;;;18.91;29.90
58295;BME280;45705;55.592;37.460;2023-05-11T06:26:39;99787.91;;;18.58;30.47
58295;BME280;45705;55.592;37.460;2023-05-11T06:29:06;99789.38;;;18.80;30.86
58295;BME280;45705;55.592;37.460;2023-05-11T06:31:32;99792.38;;;18.26;31.29
58295;BME280;45705;55.592;37.460;2023-05-11T06:33:58;99792.59;;;17.96;31.45
58295;BME280;45705;55.592;37.460;2023-05-11T06:36:27;99803.19;;;18.31;30.80
58295;BME280;45705;55.592;37.460;2023-05-11T06:38:53;99788.63;;;18.30;30.72
58295;BME280;45705;55.592;37.460;2023-05-11T06:41:20;99791.03;;;18.32;30.49
58295;BME280;45705;55.592;37.460;2023-05-11T06:43:47;99798.22;;;17.54;30.42
58295;BME280;45705;55.592;37.460;2023-05-11T06:46:26;99798.03;;;18.05;30.46
58295;BME280;45705;55.592;37.460;2023-05-11T06:48:52;99793.78;;;18.44;30.37
58295;BME280;45705;55.592;37.460;2023-05-11T06:51:18;99793.06;;;18.47;30.11
58295;BME280;45705;55.592;37.460;2023-05-11T06:53:46;99788.94;;;18.41;29.55
58295;BME280;45705;55.592;37.460;2023-05-11T06:56:12;99795.84;;;18.35;29.93
58295;BME280;45705;55.592;37.460;2023-05-11T06:58:38;99784.41;;;18.98;29.08
58295;BME280;45705;55.592;37.460;2023-05-11T07:01:04;99782.94;;;18.76;28.91
58295;BME280;45705;55.592;37.460;2023-05-11T07:03:33;99787.50;;;19.53;28.98
58295;BME280;45705;55.592;37.460;2023-05-11T07:05:59;99788.66;;;19.52;28.63
58295;BME280;45705;55.592;37.460;2023-05-11T07:08:24;99784.91;;;19.89;26.97
58295;BME280;45705;55.592;37.460;2023-05-11T07:10:51;99787.16;;;19.71;27.11
58295;BME280;45705;55.592;37.460;2023-05-11T07:13:16;99785.28;;;19.59;27.23
58295;BME280;45705;55.592;37.460;2023-05-11T07:15:42;99788.03;;;20.03;26.75
58295;BME280;45705;55.592;37.460;2023-05-11T07:18:08;99786.81;;;20.52;26.79
58295;BME280;45705;55.592;37.460;2023-05-11T07:20:34;99785.09;;;20.12;26.79
58295;BME280;45705;55.592;37.460;2023-05-11T07:23:04;99786.72;;;19.97;27.20
58295;BME280;45705;55.592;37.460;2023-05-11T07:25:30;99775.31;;;20.65;26.49
58295;BME280;45705;55.592;37.460;2023-05-11T07:27:57;99768.44;;;21.14;25.80
58295;BME280;45705;55.592;37.460;2023-05-11T07:30:22;99778.03;;;19.98;27.30
58295;BME280;45705;55.592;37.460;2023-05-11T07:32:48;99787.25;;;19.58;27.26
58295;BME280;45705;55.592;37.460;2023-05-11T07:35:14;99779.16;;;20.45;26.42
58295;BME280;45705;55.592;37.460;2023-05-11T07:37:40;99775.25;;;22.06;25.73
58295;BME280;45705;55.592;37.460;2023-05-11T07:40:07;99773.09;;;22.41;24.39
58295;BME280;45705;55.592;37.460;2023-05-11T07:42:33;99756.31;;;21.85;25.02
58295;BME280;45705;55.592;37.460;2023-05-11T07:44:59;99774.47;;;21.82;24.68
58295;BME280;45705;55.592;37.460;2023-05-11T07:47:25;99773.19;;;21.76;25.33
58295;BME280;45705;55.592;37.460;2023-05-11T07:49:50;99785.31;;;21.68;25.06
58295;BME280;45705;55.592;37.460;2023-05-11T07:52:16;99773.53;;;21.51;25.04
58295;BME280;45705;55.592;37.460;2023-05-11T07:54:42;99785.09;;;20.12;26.70
58295;BME280;45705;55.592;37.460;2023-05-11T07:57:08;99783.81;;;19.05;28.44
58295;BME280;45705;55.592;37.460;2023-05-11T07:59:36;99777.72;;;19.12;28.64
58295;BME280;45705;55.592;37.460;2023-05-11T08:02:04;99795.16;;;19.16;28.77
58295;BME280;45705;55.592;37.460;2023-05-11T08:04:30;99780.91;;;19.14;28.58
58295;BME280;45705;55.592;37.460;2023-05-11T08:06:56;99779.31;;;19.41;28.36
58295;BME280;45705;55.592;37.460;2023-05-11T08:09:23;99785.94;;;18.71;28.77
58295;BME280;45705;55.592;37.460;2023-05-11T08:11:48;99775.38;;;19.42;28.29
58295;BME280;45705;55.592;37.460;2023-05-11T08:14:14;99785.00;;;18.79;29.11
58295;BME280;45705;55.592;37.460;2023-05-11T08:16:40;99774.03;;;19.80;28.45
58295;BME280;45705;55.592;37.460;2023-05-11T08:19:07;99772.00;;;19.93;27.93
58295;BME280;45705;55.592;37.460;2023-05-11T08:21:33;99769.16;;;20.05;27.70
58295;BME280;45705;55.592;37.460;2023-05-11T08:23:59;99770.53;;;18.82;28.86
58295;BME280;45705;55.592;37.460;2023-05-11T08:26:24;99772.59;;;18.85;29.42
58295;BME280;45705;55.592;37.460;2023-05-11T08:28:50;99770.53;;;18.82;28.96
58295;BME280;45705;55.592;37.460;2023-05-11T08:31:17;99773.78;;;18.84;29.35
58295;BME280;45705;55.592;37.460;2023-05-11T08:33:43;99771.63;;;18.16;30.25
58295;BME280;45705;55.592;37.460;2023-05-11T08:36:09;99773.34;;;18.45;30.51
58295;BME280;45705;55.592;37.460;2023-05-11T08:38:38;99776.28;;;18.65;30.08
58295;BME280;45705;55.592;37.460;2023-05-11T08:41:04;99767.44;;;18.72;29.62
58295;BME280;45705;55.592;37.460;2023-05-11T08:43:34;99751.47;;;18.77;29.67
58295;BME280;45705;55.592;37.460;2023-05-11T08:46:03;99765.50;;;18.72;29.63
58295;BME280;45705;55.592;37.460;2023-05-11T08:48:29;99753.69;;;19.12;29.27
58295;BME280;45705;55.592;37.460;2023-05-11T08:50:56;99751.47;;;18.89;29.57
58295;BME280;45705;55.592;37.460;2023-05-11T08:53:22;99745.38;;;19.40;29.09
58295;BME280;45705;55.592;37.460;2023-05-11T08:55:49;99751.00;;;19.44;28.82
58295;BME280;45705;55.592;37.460;2023-05-11T08:58:16;99737.59;;;19.14;29.08
58295;BME280;45705;55.592;37.460;2023-05-11T09:00:49;99744.00;;;19.18;29.23
58295;BME280;45705;55.592;37.460;2023-05-11T09:03:17;99744.59;;;18.83;29.80
58295;BME280;45705;55.592;37.460;2023-05-11T09:05:45;99744.16;;;18.81;29.70
58295;BME280;45705;55.592;37.460;2023-05-11T09:08:12;99753.84;;;18.38;30.95
58295;BME280;45705;55.592;37.460;2023-05-11T09:10:38;99751.56;;;18.03;31.85
58295;BME280;45705;55.592;37.460;2023-05-11T09:13:05;99744.81;;;17.43;32.58
58295;BME280;45705;55.592;37.460;2023-05-11T09:15:31;99745.56;;;17.64;32.53
58295;BME280;45705;55.592;37.460;2023-05-11T09:17:57;99743.16;;;17.75;32.65
58295;BME280;45705;55.592;37.460;2023-05-11T09:20:26;99744.19;;;17.70;32.71
58295;BME280;45705;55.592;37.460;2023-05-11T09:22:53;99737.06;;;17.69;32.50
58295;BME280;45705;55.592;37.460;2023-05-11T09:25:19;99741.72;;;17.44;32.58
58295;BME280;45705;55.592;37.460;2023-05-11T09:27:46;99744.63;;;17.60;32.27
58295;BME280;45705;55.592;37.460;2023-05-11T09:30:15;99733.69;;;17.85;32.22
58295;BME280;45705;55.592;37.460;2023-05-11T09:35:22;99718.94;;;18.67;30.51
58295;BME280;45705;55.592;37.460;2023-05-11T09:38:09;99724.97;;;18.07;31.89
58295;BME280;45705;55.592;37.460;2023-05-11T09:40:40;99727.56;;;17.67;33.29
58295;BME280;45705;55.592;37.460;2023-05-11T09:43:26;99710.06;;;18.08;32.15
58295;BME280;45705;55.592;37.460;2023-05-11T09:45:53;99730.81;;;17.94;32.39
58295;BME280;45705;55.592;37.460;2023-05-11T09:50:50;99679.66;;;18.70;30.43
58295;BME280;45705;55.592;37.460;2023-05-11T09:53:16;99699.75;;;19.27;30.39
58295;BME280;45705;55.592;37.460;2023-05-11T09:55:53;99704.09;;;19.28;29.78
58295;BME280;45705;55.592;37.460;2023-05-11T09:58:19;99699.38;;;19.73;29.64
58295;BME280;45705;55.592;37.460;2023-05-11T10:00:52;99696.25;;;19.90;28.54
58295;BME280;45705;55.592;37.460;2023-05-11T10:03:18;99694.81;;;19.80;28.21
58295;BME280;45705;55.592;37.460;2023-05-11T10:05:59;99684.69;;;20.20;28.07
58295;BME280;45705;55.592;37.460;2023-05-11T10:08:29;99678.91;;;20.25;28.12
58295;BME280;45705;55.592;37.460;2023-05-11T10:10:56;99685.13;;;20.57;27.85
58295;BME280;45705;55.592;37.460;2023-05-11T10:13:25;99678.19;;;20.28;29.09
58295;BME280;45705;55.592;37.460;2023-05-11T10:15:51;99672.34;;;20.14;30.05
58295;BME280;45705;55.592;37.460;2023-05-11T10:18:19;99678.19;;;19.77;30.40
58295;BME280;45705;55.592;37.460;2023-05-11T10:20:44;99676.53;;;19.60;31.23
58295;BME280;45705;55.592;37.460;2023-05-11T10:23:11;99688.75;;;18.99;31.58
58295;BME280;45705;55.592;37.460;2023-05-11T10:25:38;99684.38;;;18.98;32.20
58295;BME280;45705;55.592;37.460;2023-05-11T10:28:04;99689.97;;;18.73;32.63
58295;BME280;45705;55.592;37.460;2023-05-11T10:30:32;99705.38;;;18.62;33.08
58295;BME280;45705;55.592;37.460;2023-05-11T10:32:59;99709.16;;;18.04;33.03
58295;BME280;45705;55.592;37.460;2023-05-11T10:35:26;99727.97;;;17.90;32.86
58295;BME280;45705;55.592;37.460;2023-05-11T10:37:53;99732.41;;;17.37;34.44
58295;BME280;45705;55.592;37.460;2023-05-11T10:40:19;99752.84;;;15.83;38.66
58295;BME280;45705;55.592;37.460;2023-05-11T10:54:13;99814.16;;;14.16;50.29
58295;BME280;45705;55.592;37.460;2023-05-11T10:59:42;99743.63;;;14.53;49.27
58295;BME280;45705;55.592;37.460;2023-05-11T11:02:09;99735.94;;;14.90;48.88
58295;BME280;45705;55.592;37.460;2023-05-11T11:04:45;99734.13;;;15.12;48.23
58295;BME280;45705;55.592;37.460;2023-05-11T11:07:11;99727.59;;;15.60;50.68
58295;BME280;45705;55.592;37.460;2023-05-11T11:09:58;99731.09;;;14.79;52.39
58295;BME280;45705;55.592;37.460;2023-05-11T11:12:32;99716.56;;;15.22;54.41
58295;BME280;45705;55.592;37.460;2023-05-11T11:15:05;99707.78;;;15.54;53.00
58295;BME280;45705;55.592;37.460;2023-05-11T11:17:35;99704.34;;;15.66;56.27
58295;BME280;45705;55.592;37.460;2023-05-11T11:20:06;99701.94;;;15.65;55.36
58295;BME280;45705;55.592;37.460;2023-05-11T11:22:41;99704.69;;;15.73;53.17
58295;BME280;45705;55.592;37.460;2023-05-11T11:25:08;99699.31;;;16.16;54.04
58295;BME280;45705;55.592;37.460;2023-05-11T11:30:16;99693.44;;;16.68;54.83
58295;BME280;45705;55.592;37.460;2023-05-11T11:32:50;99692.53;;;16.85;49.65
58295;BME280;45705;55.592;37.460;2023-05-11T11:38:12;99683.72;;;16.49;47.08
58295;BME280;45705;55.592;37.460;2023-05-11T11:43:15;99708.59;;;16.95;45.86
58295;BME280;45705;55.592;37.460;2023-05-11T11:45:52;99721.63;;;16.56;44.04
58295;BME280;45705;55.592;37.460;2023-05-11T12:01:21;99762.53;;;15.16;41.08
58295;BME280;45705;55.592;37.460;2023-05-11T12:06:41;99779.25;;;15.23;42.29
58295;BME280;45705;55.592;37.460;2023-05-11T12:09:09;99781.69;;;15.16;45.61
58295;BME280;45705;55.592;37.460;2023-05-11T12:11:36;99776.38;;;15.11;49.07
58295;BME280;45705;55.592;37.460;2023-05-11T12:14:02;99787.00;;;14.86;52.55
58295;BME280;45705;55.592;37.460;2023-05-11T12:16:29;99781.50;;;14.69;55.62
58295;BME280;45705;55.592;37.460;2023-05-11T12:18:56;99787.78;;;14.61;58.84
58295;BME280;45705;55.592;37.460;2023-05-11T12:21:25;99771.78;;;14.45;57.45
58295;BME280;45705;55.592;37.460;2023-05-11T12:24:04;99761.16;;;14.35;59.95
58295;BME280;45705;55.592;37.460;2023-05-11T12:26:31;99765.03;;;14.51;62.17
58295;BME280;45705;55.592;37.460;2023-05-11T12:29:08;99742.50;;;14.54;63.79
58295;BME280;45705;55.592;37.460;2023-05-11T12:31:41;99730.31;;;14.61;63.55
58295;BME280;45705;55.592;37.460;2023-05-11T12:34:17;99725.06;;;14.15;65.62
58295;BME280;45705;55.592;37.460;2023-05-11T12:36:44;99700.69;;;13.88;68.25
58295;BME280;45705;55.592;37.460;2023-05-11T12:39:20;99709.69;;;13.88;68.35
58295;BME280;45705;55.592;37.460;2023-05-11T12:41:47;99696.75;;;14.11;66.74
58295;BME280;45705;55.592;37.460;2023-05-11T12:44:15;99695.41;;;14.00;66.66
58295;BME280;45705;55.592;37.460;2023-05-11T12:46:45;99699.97;;;14.13;67.65
58295;BME280;45705;55.592;37.460;2023-05-11T12:49:14;99699.31;;;14.16;69.29
58295;BME280;45705;55.592;37.460;2023-05-11T12:51:44;99700.00;;;14.31;67.88
58295;BME280;45705;55.592;37.460;2023-05-11T12:54:10;99700.47;;;14.42;66.62
58295;BME280;45705;55.592;37.460;2023-05-11T12:56:48;99696.47;;;14.39;65.35
58295;BME280;45705;55.592;37.460;2023-05-11T13:01:48;99694.59;;;14.66;65.72
58295;BME280;45705;55.592;37.460;2023-05-11T13:04:14;99691.03;;;14.74;62.19
58295;BME280;45705;55.592;37.460;2023-05-11T13:06:43;99693.59;;;14.79;60.67
58295;BME280;45705;55.592;37.460;2023-05-11T13:09:09;99693.41;;;15.02;58.04
58295;BME280;45705;55.592;37.460;2023-05-11T13:11:35;99695.84;;;15.03;57.50
58295;BME280;45705;55.592;37.460;2023-05-11T13:14:14;99701.16;;;15.00;58.46
58295;BME280;45705;55.592;37.460;2023-05-11T13:16:40;99698.56;;;15.03;58.29
58295;BME280;45705;55.592;37.460;2023-05-11T13:19:26;99698.97;;;15.31;56.99
58295;BME280;45705;55.592;37.460;2023-05-11T13:21:57;99692.66;;;15.48;56.82
58295;BME280;45705;55.592;37.460;2023-05-11T13:24:23;99695.88;;;15.50;56.02
58295;BME280;45705;55.592;37.460;2023-05-11T13:26:50;99684.69;;;15.73;55.45
58295;BME280;45705;55.592;37.460;2023-05-11T13:29:16;99683.22;;;15.75;55.61
58295;BME280;45705;55.592;37.460;2023-05-11T13:31:47;99676.63;;;15.77;55.77
58295;BME280;45705;55.592;37.460;2023-05-11T13:34:13;99681.31;;;15.97;54.55
58295;BME280;45705;55.592;37.460;2023-05-11T13:36:40;99690.50;;;16.01;53.76
58295;BME280;45705;55.592;37.460;2023-05-11T13:39:06;99686.72;;;16.14;53.42
58295;BME280;45705;55.592;37.460;2023-05-11T13:41:32;99660.81;;;16.03;48.40
58295;BME280;45705;55.592;37.460;2023-05-11T13:43:58;99676.88;;;16.13;48.95
58295;BME280;45705;55.592;37.460;2023-05-11T13:46:24;99679.53;;;16.31;47.50
58295;BME280;45705;55.592;37.460;2023-05-11T13:48:50;99674.69;;;16.49;47.72